PWSweather.com
Personal Weather Stations
Station Observations
KC4KQE
Superstition Mountains, Apache Junction, AZ 85119

Superstition MountainsApache Junction, AZ 85119

Lat: 33.41578, Lon: -111.49328

Elevation: 1850

Station Type: Davis Vantage Pro2 Plus

http://kc4kqe.org/

High Low Average
Temperature 95.8°F35.4°C 64.5°F18.1°C 83.4°F28.6°C
Dew Point 47.3°F8.5°C 35.7°F2.1°C 42.5°F5.8°C
Winds 12.0 mph 19.3 kmh Calm Calm 2.0 mph S3.2 kmh S
Wind Gusts 16.0 mph25.7 kmh -- 5.0 mph8.0 kmh
Humidity 47% 13% 26%
Pressure 29.85 in1010.8 mb 29.73 in1006.8 mb -
Precipitation 0.00 in0.0 mm - -
Hour Temp Dew Point Humidity Winds Wind Gusts Pressure Precip Precip Rate Daily Precip Total
12:00 AM 77.8°F25.4°C 40.1°F4.5°C 26% 1.0 mph NW1.6 kmh NW 4.0 mph6.4 kmh 29.79 in1008.8 mb 0.00 in0.0 mm 0.00 in0.0 mm 0.00 in0.0 mm
12:05 AM 77.7°F25.4°C 40.0°F4.4°C 26% Calm Calm 3.0 mph4.8 kmh 29.79 in1008.8 mb 0.00 in0.0 mm 0.00 in0.0 mm 0.00 in0.0 mm
12:10 AM 77.6°F25.3°C 39.9°F4.4°C 26% 1.0 mph NW1.6 kmh NW 2.0 mph3.2 kmh 29.79 in1008.8 mb 0.00 in0.0 mm 0.00 in0.0 mm 0.00 in0.0 mm
12:15 AM 77.5°F25.3°C 39.8°F4.3°C 26% 1.0 mph NW1.6 kmh NW 2.0 mph3.2 kmh 29.79 in1008.8 mb 0.00 in0.0 mm 0.00 in0.0 mm 0.00 in0.0 mm
12:20 AM 77.3°F25.2°C 39.7°F4.3°C 26% Calm Calm 1.0 mph1.6 kmh 29.79 in1008.8 mb 0.00 in0.0 mm 0.00 in0.0 mm 0.00 in0.0 mm
12:25 AM 77.1°F25.1°C 40.5°F4.7°C 27% Calm Calm 1.0 mph1.6 kmh 29.79 in1008.8 mb 0.00 in0.0 mm 0.00 in0.0 mm 0.00 in0.0 mm
12:30 AM 76.8°F24.9°C 40.2°F4.6°C 27% Calm Calm 2.0 mph3.2 kmh 29.79 in1008.8 mb 0.00 in0.0 mm 0.00 in0.0 mm 0.00 in0.0 mm
12:35 AM 76.4°F24.7°C 39.9°F4.4°C 27% Calm Calm 3.0 mph4.8 kmh 29.79 in1008.8 mb 0.00 in0.0 mm 0.00 in0.0 mm 0.00 in0.0 mm
12:40 AM 75.9°F24.4°C 40.4°F4.7°C 28% Calm Calm 3.0 mph4.8 kmh 29.79 in1008.8 mb 0.00 in0.0 mm 0.00 in0.0 mm 0.00 in0.0 mm
12:45 AM 75.5°F24.2°C 41.0°F5.0°C 29% Calm Calm 4.0 mph6.4 kmh 29.79 in1008.8 mb 0.00 in0.0 mm 0.00 in0.0 mm 0.00 in0.0 mm
12:50 AM 75.1°F23.9°C 40.6°F4.8°C 29% 1.0 mph W1.6 kmh W 3.0 mph4.8 kmh 29.79 in1008.8 mb 0.00 in0.0 mm 0.00 in0.0 mm 0.00 in0.0 mm
12:55 AM 74.8°F23.8°C 41.2°F5.1°C 30% 2.0 mph W3.2 kmh W 6.0 mph9.7 kmh 29.79 in1008.8 mb 0.00 in0.0 mm 0.00 in0.0 mm 0.00 in0.0 mm
01:00 AM 74.7°F23.7°C 42.0°F5.6°C 31% 3.0 mph W4.8 kmh W 7.0 mph11.3 kmh 29.79 in1008.8 mb 0.00 in0.0 mm 0.00 in0.0 mm 0.00 in0.0 mm
01:05 AM 74.9°F23.8°C 42.2°F5.7°C 31% 4.0 mph WSW6.4 kmh WSW 6.0 mph9.7 kmh 29.80 in1009.1 mb 0.00 in0.0 mm 0.00 in0.0 mm 0.00 in0.0 mm
01:10 AM 75.2°F24.0°C 42.4°F5.8°C 31% 2.0 mph W3.2 kmh W 4.0 mph6.4 kmh 29.80 in1009.1 mb 0.00 in0.0 mm 0.00 in0.0 mm 0.00 in0.0 mm
01:15 AM 75.3°F24.1°C 42.5°F5.8°C 31% 4.0 mph W6.4 kmh W 5.0 mph8.0 kmh 29.80 in1009.1 mb 0.00 in0.0 mm 0.00 in0.0 mm 0.00 in0.0 mm
01:20 AM 75.4°F24.1°C 43.4°F6.3°C 32% 2.0 mph WSW3.2 kmh WSW 5.0 mph8.0 kmh 29.80 in1009.1 mb 0.00 in0.0 mm 0.00 in0.0 mm 0.00 in0.0 mm
01:25 AM 75.4°F24.1°C 43.4°F6.3°C 32% Calm Calm 3.0 mph4.8 kmh 29.80 in1009.1 mb 0.00 in0.0 mm 0.00 in0.0 mm 0.00 in0.0 mm
01:30 AM 75.3°F24.1°C 42.5°F5.8°C 31% 3.0 mph W4.8 kmh W 3.0 mph4.8 kmh 29.80 in1009.1 mb 0.00 in0.0 mm 0.00 in0.0 mm 0.00 in0.0 mm
01:35 AM 74.7°F23.7°C 42.0°F5.6°C 31% 1.0 mph NE1.6 kmh NE 3.0 mph4.8 kmh 29.80 in1009.1 mb 0.00 in0.0 mm 0.00 in0.0 mm 0.00 in0.0 mm
01:40 AM 74.1°F23.4°C 42.3°F5.7°C 32% 2.0 mph NE3.2 kmh NE 2.0 mph3.2 kmh 29.80 in1009.1 mb 0.00 in0.0 mm 0.00 in0.0 mm 0.00 in0.0 mm
01:45 AM 73.6°F23.1°C 41.9°F5.5°C 32% Calm Calm 3.0 mph4.8 kmh 29.80 in1009.1 mb 0.00 in0.0 mm 0.00 in0.0 mm 0.00 in0.0 mm
01:50 AM 73.4°F23.0°C 42.5°F5.8°C 33% 1.0 mph NE1.6 kmh NE 2.0 mph3.2 kmh 29.80 in1009.1 mb 0.00 in0.0 mm 0.00 in0.0 mm 0.00 in0.0 mm
01:55 AM 72.9°F22.7°C 42.0°F5.6°C 33% Calm Calm 2.0 mph3.2 kmh 29.80 in1009.1 mb 0.00 in0.0 mm 0.00 in0.0 mm 0.00 in0.0 mm
02:00 AM 72.8°F22.7°C 42.7°F5.9°C 34% Calm Calm -- 29.80 in1009.1 mb 0.00 in0.0 mm 0.00 in0.0 mm 0.00 in0.0 mm
02:05 AM 72.4°F22.4°C 43.1°F6.2°C 35% Calm Calm 2.0 mph3.2 kmh 29.80 in1009.1 mb 0.00 in0.0 mm 0.00 in0.0 mm 0.00 in0.0 mm
02:10 AM 72.2°F22.3°C 43.0°F6.1°C 35% Calm Calm 1.0 mph1.6 kmh 29.80 in1009.1 mb 0.00 in0.0 mm 0.00 in0.0 mm 0.00 in0.0 mm
02:15 AM 72.1°F22.3°C 42.9°F6.1°C 35% Calm Calm 2.0 mph3.2 kmh 29.80 in1009.1 mb 0.00 in0.0 mm 0.00 in0.0 mm 0.00 in0.0 mm
02:20 AM 71.9°F22.2°C 43.4°F6.3°C 36% Calm Calm 2.0 mph3.2 kmh 29.80 in1009.1 mb 0.00 in0.0 mm 0.00 in0.0 mm 0.00 in0.0 mm
02:25 AM 71.7°F22.1°C 43.3°F6.3°C 36% 2.0 mph NE3.2 kmh NE 2.0 mph3.2 kmh 29.80 in1009.1 mb 0.00 in0.0 mm 0.00 in0.0 mm 0.00 in0.0 mm
02:30 AM 71.5°F21.9°C 43.8°F6.6°C 37% 2.0 mph NE3.2 kmh NE 3.0 mph4.8 kmh 29.80 in1009.1 mb 0.00 in0.0 mm 0.00 in0.0 mm 0.00 in0.0 mm
02:35 AM 71.3°F21.8°C 43.6°F6.4°C 37% 2.0 mph NE3.2 kmh NE -- 29.80 in1009.1 mb 0.00 in0.0 mm 0.00 in0.0 mm 0.00 in0.0 mm
02:40 AM 71.1°F21.7°C 44.1°F6.7°C 38% Calm Calm 2.0 mph3.2 kmh 29.80 in1009.1 mb 0.00 in0.0 mm 0.00 in0.0 mm 0.00 in0.0 mm
02:45 AM 71.1°F21.7°C 44.1°F6.7°C 38% Calm Calm 2.0 mph3.2 kmh 29.80 in1009.1 mb 0.00 in0.0 mm 0.00 in0.0 mm 0.00 in0.0 mm
02:50 AM 71.0°F21.7°C 44.1°F6.7°C 38% Calm Calm 1.0 mph1.6 kmh 29.81 in1009.5 mb 0.00 in0.0 mm 0.00 in0.0 mm 0.00 in0.0 mm
02:55 AM 70.9°F21.6°C 44.0°F6.7°C 38% 1.0 mph NE1.6 kmh NE 1.0 mph1.6 kmh 29.81 in1009.5 mb 0.00 in0.0 mm 0.00 in0.0 mm 0.00 in0.0 mm
03:00 AM 70.8°F21.6°C 43.9°F6.6°C 38% Calm Calm 1.0 mph1.6 kmh 29.81 in1009.5 mb 0.00 in0.0 mm 0.00 in0.0 mm 0.00 in0.0 mm
03:05 AM 70.7°F21.5°C 44.5°F6.9°C 39% Calm Calm 1.0 mph1.6 kmh 29.81 in1009.5 mb 0.00 in0.0 mm 0.00 in0.0 mm 0.00 in0.0 mm
03:10 AM 70.4°F21.3°C 44.2°F6.8°C 39% Calm Calm 2.0 mph3.2 kmh 29.81 in1009.5 mb 0.00 in0.0 mm 0.00 in0.0 mm 0.00 in0.0 mm
03:15 AM 70.2°F21.2°C 44.7°F7.1°C 40% Calm Calm 1.0 mph1.6 kmh 29.81 in1009.5 mb 0.00 in0.0 mm 0.00 in0.0 mm 0.00 in0.0 mm
03:20 AM 70.1°F21.2°C 44.6°F7.0°C 40% Calm Calm 2.0 mph3.2 kmh 29.81 in1009.5 mb 0.00 in0.0 mm 0.00 in0.0 mm 0.00 in0.0 mm
03:25 AM 69.9°F21.1°C 44.4°F6.9°C 40% 2.0 mph NE3.2 kmh NE 2.0 mph3.2 kmh 29.81 in1009.5 mb 0.00 in0.0 mm 0.00 in0.0 mm 0.00 in0.0 mm
03:30 AM 69.4°F20.8°C 44.0°F6.7°C 40% Calm Calm 2.0 mph3.2 kmh 29.81 in1009.5 mb 0.00 in0.0 mm 0.00 in0.0 mm 0.00 in0.0 mm
03:35 AM 69.2°F20.7°C 44.4°F6.9°C 41% 2.0 mph NE3.2 kmh NE 2.0 mph3.2 kmh 29.81 in1009.5 mb 0.00 in0.0 mm 0.00 in0.0 mm 0.00 in0.0 mm
03:40 AM 69.0°F20.6°C 44.3°F6.8°C 41% 1.0 mph NE1.6 kmh NE 3.0 mph4.8 kmh 29.81 in1009.5 mb 0.00 in0.0 mm 0.00 in0.0 mm 0.00 in0.0 mm
03:45 AM 68.9°F20.5°C 44.8°F7.1°C 42% Calm Calm 2.0 mph3.2 kmh 29.81 in1009.5 mb 0.00 in0.0 mm 0.00 in0.0 mm 0.00 in0.0 mm
03:50 AM 68.8°F20.4°C 44.7°F7.1°C 42% Calm Calm 1.0 mph1.6 kmh 29.81 in1009.5 mb 0.00 in0.0 mm 0.00 in0.0 mm 0.00 in0.0 mm
03:55 AM 68.8°F20.4°C 44.7°F7.1°C 42% Calm Calm -- 29.81 in1009.5 mb 0.00 in0.0 mm 0.00 in0.0 mm 0.00 in0.0 mm
04:00 AM 68.7°F20.4°C 44.6°F7.0°C 42% 3.0 mph E4.8 kmh E 3.0 mph4.8 kmh 29.81 in1009.5 mb 0.00 in0.0 mm 0.00 in0.0 mm 0.00 in0.0 mm
04:05 AM 68.5°F20.3°C 44.4°F6.9°C 42% Calm Calm 3.0 mph4.8 kmh 29.81 in1009.5 mb 0.00 in0.0 mm 0.00 in0.0 mm 0.00 in0.0 mm
04:10 AM 68.4°F20.2°C 44.4°F6.9°C 42% Calm Calm -- 29.81 in1009.5 mb 0.00 in0.0 mm 0.00 in0.0 mm 0.00 in0.0 mm
04:15 AM 67.9°F19.9°C 44.5°F6.9°C 43% Calm Calm 2.0 mph3.2 kmh 29.81 in1009.5 mb 0.00 in0.0 mm 0.00 in0.0 mm 0.00 in0.0 mm
04:20 AM 67.6°F19.8°C 44.2°F6.8°C 43% Calm Calm 1.0 mph1.6 kmh 29.81 in1009.5 mb 0.00 in0.0 mm 0.00 in0.0 mm 0.00 in0.0 mm
04:25 AM 67.5°F19.7°C 44.2°F6.8°C 43% 1.0 mph E1.6 kmh E 2.0 mph3.2 kmh 29.81 in1009.5 mb 0.00 in0.0 mm 0.00 in0.0 mm 0.00 in0.0 mm
04:30 AM 67.3°F19.6°C 44.0°F6.7°C 43% Calm Calm 1.0 mph1.6 kmh 29.81 in1009.5 mb 0.00 in0.0 mm 0.00 in0.0 mm 0.00 in0.0 mm
04:35 AM 67.0°F19.4°C 43.7°F6.5°C 43% Calm Calm 1.0 mph1.6 kmh 29.81 in1009.5 mb 0.00 in0.0 mm 0.00 in0.0 mm 0.00 in0.0 mm
04:40 AM 66.7°F19.3°C 44.0°F6.7°C 44% Calm Calm -- 29.81 in1009.5 mb 0.00 in0.0 mm 0.00 in0.0 mm 0.00 in0.0 mm
04:45 AM 66.5°F19.2°C 43.9°F6.6°C 44% Calm Calm 2.0 mph3.2 kmh 29.81 in1009.5 mb 0.00 in0.0 mm 0.00 in0.0 mm 0.00 in0.0 mm
04:50 AM 66.3°F19.1°C 44.3°F6.8°C 45% Calm Calm -- 29.82 in1009.8 mb 0.00 in0.0 mm 0.00 in0.0 mm 0.00 in0.0 mm
04:55 AM 66.1°F18.9°C 44.1°F6.7°C 45% Calm Calm 1.0 mph1.6 kmh 29.82 in1009.8 mb 0.00 in0.0 mm 0.00 in0.0 mm 0.00 in0.0 mm
05:00 AM 65.9°F18.8°C 43.9°F6.6°C 45% 2.0 mph E3.2 kmh E 2.0 mph3.2 kmh 29.82 in1009.8 mb 0.00 in0.0 mm 0.00 in0.0 mm 0.00 in0.0 mm
05:05 AM 65.8°F18.8°C 43.8°F6.6°C 45% 2.0 mph E3.2 kmh E 2.0 mph3.2 kmh 29.82 in1009.8 mb 0.00 in0.0 mm 0.00 in0.0 mm 0.00 in0.0 mm
05:10 AM 65.7°F18.7°C 43.7°F6.5°C 45% 1.0 mph E1.6 kmh E 2.0 mph3.2 kmh 29.82 in1009.8 mb 0.00 in0.0 mm 0.00 in0.0 mm 0.00 in0.0 mm
05:15 AM 65.5°F18.6°C 43.5°F6.4°C 45% 1.0 mph E1.6 kmh E 3.0 mph4.8 kmh 29.82 in1009.8 mb 0.00 in0.0 mm 0.00 in0.0 mm 0.00 in0.0 mm
05:20 AM 65.2°F18.4°C 43.3°F6.3°C 45% Calm Calm 2.0 mph3.2 kmh 29.82 in1009.8 mb 0.00 in0.0 mm 0.00 in0.0 mm 0.00 in0.0 mm
05:25 AM 65.1°F18.4°C 43.2°F6.2°C 45% Calm Calm -- 29.82 in1009.8 mb 0.00 in0.0 mm 0.00 in0.0 mm 0.00 in0.0 mm
05:30 AM 64.9°F18.3°C 43.0°F6.1°C 45% Calm Calm -- 29.83 in1010.2 mb 0.00 in0.0 mm 0.00 in0.0 mm 0.00 in0.0 mm
05:35 AM 64.8°F18.2°C 42.9°F6.1°C 45% Calm Calm -- 29.83 in1010.2 mb 0.00 in0.0 mm 0.00 in0.0 mm 0.00 in0.0 mm
05:40 AM 64.7°F18.2°C 42.8°F6.0°C 45% Calm Calm -- 29.83 in1010.2 mb 0.00 in0.0 mm 0.00 in0.0 mm 0.00 in0.0 mm
05:45 AM 64.7°F18.2°C 43.4°F6.3°C 46% Calm Calm -- 29.83 in1010.2 mb 0.00 in0.0 mm 0.00 in0.0 mm 0.00 in0.0 mm
05:50 AM 64.6°F18.1°C 43.3°F6.3°C 46% 2.0 mph E3.2 kmh E 2.0 mph3.2 kmh 29.83 in1010.2 mb 0.00 in0.0 mm 0.00 in0.0 mm 0.00 in0.0 mm
05:55 AM 64.5°F18.1°C 43.2°F6.2°C 46% 1.0 mph E1.6 kmh E 2.0 mph3.2 kmh 29.83 in1010.2 mb 0.00 in0.0 mm 0.00 in0.0 mm 0.00 in0.0 mm
06:00 AM 64.5°F18.1°C 43.2°F6.2°C 46% 1.0 mph E1.6 kmh E 3.0 mph4.8 kmh 29.83 in1010.2 mb 0.00 in0.0 mm 0.00 in0.0 mm 0.00 in0.0 mm
06:05 AM 64.6°F18.1°C 43.9°F6.6°C 47% 1.0 mph E1.6 kmh E 2.0 mph3.2 kmh 29.83 in1010.2 mb 0.00 in0.0 mm 0.00 in0.0 mm 0.00 in0.0 mm
06:10 AM 64.8°F18.2°C 44.0°F6.7°C 47% 1.0 mph E1.6 kmh E 2.0 mph3.2 kmh 29.83 in1010.2 mb 0.00 in0.0 mm 0.00 in0.0 mm 0.00 in0.0 mm
06:15 AM 65.0°F18.3°C 44.2°F6.8°C 47% 1.0 mph E1.6 kmh E 2.0 mph3.2 kmh 29.83 in1010.2 mb 0.00 in0.0 mm 0.00 in0.0 mm 0.00 in0.0 mm
06:20 AM 65.4°F18.6°C 44.6°F7.0°C 47% 1.0 mph E1.6 kmh E 2.0 mph3.2 kmh 29.83 in1010.2 mb 0.00 in0.0 mm 0.00 in0.0 mm 0.00 in0.0 mm
06:25 AM 65.9°F18.8°C 45.0°F7.2°C 47% 1.0 mph E1.6 kmh E 2.0 mph3.2 kmh 29.83 in1010.2 mb 0.00 in0.0 mm 0.00 in0.0 mm 0.00 in0.0 mm
06:30 AM 66.3°F19.1°C 45.4°F7.4°C 47% 1.0 mph E1.6 kmh E 2.0 mph3.2 kmh 29.83 in1010.2 mb 0.00 in0.0 mm 0.00 in0.0 mm 0.00 in0.0 mm
06:35 AM 67.4°F19.7°C 45.8°F7.7°C 46% Calm Calm 1.0 mph1.6 kmh 29.83 in1010.2 mb 0.00 in0.0 mm 0.00 in0.0 mm 0.00 in0.0 mm
06:40 AM 68.6°F20.3°C 45.8°F7.7°C 44% 2.0 mph E3.2 kmh E 2.0 mph3.2 kmh 29.83 in1010.2 mb 0.00 in0.0 mm 0.00 in0.0 mm 0.00 in0.0 mm
06:45 AM 69.5°F20.8°C 46.6°F8.1°C 44% Calm Calm 2.0 mph3.2 kmh 29.83 in1010.2 mb 0.00 in0.0 mm 0.00 in0.0 mm 0.00 in0.0 mm
06:50 AM 70.5°F21.4°C 46.9°F8.3°C 43% Calm Calm 2.0 mph3.2 kmh 29.84 in1010.5 mb 0.00 in0.0 mm 0.00 in0.0 mm 0.00 in0.0 mm
06:55 AM 71.5°F21.9°C 47.1°F8.4°C 42% 1.0 mph E1.6 kmh E 2.0 mph3.2 kmh 29.84 in1010.5 mb 0.00 in0.0 mm 0.00 in0.0 mm 0.00 in0.0 mm
07:00 AM 72.4°F22.4°C 47.3°F8.5°C 41% 1.0 mph E1.6 kmh E 2.0 mph3.2 kmh 29.84 in1010.5 mb 0.00 in0.0 mm 0.00 in0.0 mm 0.00 in0.0 mm
07:05 AM 73.4°F23.0°C 46.9°F8.3°C 39% 1.0 mph E1.6 kmh E 2.0 mph3.2 kmh 29.84 in1010.5 mb 0.00 in0.0 mm 0.00 in0.0 mm 0.00 in0.0 mm
07:10 AM 74.4°F23.6°C 46.4°F8.0°C 37% Calm Calm 2.0 mph3.2 kmh 29.84 in1010.5 mb 0.00 in0.0 mm 0.00 in0.0 mm 0.00 in0.0 mm
07:15 AM 75.1°F23.9°C 45.5°F7.5°C 35% Calm Calm -- 29.84 in1010.5 mb 0.00 in0.0 mm 0.00 in0.0 mm 0.00 in0.0 mm
07:20 AM 76.0°F24.4°C 45.5°F7.5°C 34% Calm Calm 2.0 mph3.2 kmh 29.84 in1010.5 mb 0.00 in0.0 mm 0.00 in0.0 mm 0.00 in0.0 mm
07:25 AM 77.1°F25.1°C 45.7°F7.6°C 33% 2.0 mph E3.2 kmh E 2.0 mph3.2 kmh 29.84 in1010.5 mb 0.00 in0.0 mm 0.00 in0.0 mm 0.00 in0.0 mm
07:30 AM 78.0°F25.6°C 45.7°F7.6°C 32% Calm Calm 2.0 mph3.2 kmh 29.84 in1010.5 mb 0.00 in0.0 mm 0.00 in0.0 mm 0.00 in0.0 mm
07:35 AM 78.8°F26.0°C 45.5°F7.5°C 31% Calm Calm 1.0 mph1.6 kmh 29.84 in1010.5 mb 0.00 in0.0 mm 0.00 in0.0 mm 0.00 in0.0 mm
07:40 AM 79.5°F26.4°C 45.3°F7.4°C 30% Calm Calm 1.0 mph1.6 kmh 29.84 in1010.5 mb 0.00 in0.0 mm 0.00 in0.0 mm 0.00 in0.0 mm
07:45 AM 80.2°F26.8°C 45.9°F7.7°C 30% Calm Calm 2.0 mph3.2 kmh 29.84 in1010.5 mb 0.00 in0.0 mm 0.00 in0.0 mm 0.00 in0.0 mm
07:50 AM 80.9°F27.2°C 45.6°F7.6°C 29% 1.0 mph SE1.6 kmh SE 4.0 mph6.4 kmh 29.84 in1010.5 mb 0.00 in0.0 mm 0.00 in0.0 mm 0.00 in0.0 mm
07:55 AM 81.2°F27.3°C 44.9°F7.2°C 28% 2.0 mph SSE3.2 kmh SSE 2.0 mph3.2 kmh 29.84 in1010.5 mb 0.00 in0.0 mm 0.00 in0.0 mm 0.00 in0.0 mm
08:00 AM 81.2°F27.3°C 44.9°F7.2°C 28% 2.0 mph S3.2 kmh S 2.0 mph3.2 kmh 29.84 in1010.5 mb 0.00 in0.0 mm 0.00 in0.0 mm 0.00 in0.0 mm
08:05 AM 81.2°F27.3°C 44.9°F7.2°C 28% 2.0 mph SW3.2 kmh SW 3.0 mph4.8 kmh 29.84 in1010.5 mb 0.00 in0.0 mm 0.00 in0.0 mm 0.00 in0.0 mm
08:10 AM 81.4°F27.4°C 45.1°F7.3°C 28% Calm Calm 3.0 mph4.8 kmh 29.84 in1010.5 mb 0.00 in0.0 mm 0.00 in0.0 mm 0.00 in0.0 mm
08:15 AM 81.6°F27.6°C 45.3°F7.4°C 28% 1.0 mph SW1.6 kmh SW 2.0 mph3.2 kmh 29.85 in1010.8 mb 0.00 in0.0 mm 0.00 in0.0 mm 0.00 in0.0 mm
08:20 AM 81.8°F27.7°C 45.4°F7.4°C 28% Calm Calm 2.0 mph3.2 kmh 29.85 in1010.8 mb 0.00 in0.0 mm 0.00 in0.0 mm 0.00 in0.0 mm
08:25 AM 82.1°F27.8°C 44.7°F7.1°C 27% 1.0 mph NW1.6 kmh NW 3.0 mph4.8 kmh 29.85 in1010.8 mb 0.00 in0.0 mm 0.00 in0.0 mm 0.00 in0.0 mm
08:30 AM 82.3°F27.9°C 44.9°F7.2°C 27% 1.0 mph NNW1.6 kmh NNW 3.0 mph4.8 kmh 29.85 in1010.8 mb 0.00 in0.0 mm 0.00 in0.0 mm 0.00 in0.0 mm
08:35 AM 82.7°F28.2°C 45.2°F7.3°C 27% 2.0 mph NE3.2 kmh NE 4.0 mph6.4 kmh 29.85 in1010.8 mb 0.00 in0.0 mm 0.00 in0.0 mm 0.00 in0.0 mm
08:40 AM 82.8°F28.2°C 45.3°F7.4°C 27% 2.0 mph E3.2 kmh E 5.0 mph8.0 kmh 29.85 in1010.8 mb 0.00 in0.0 mm 0.00 in0.0 mm 0.00 in0.0 mm
08:45 AM 83.3°F28.5°C 45.7°F7.6°C 27% 3.0 mph NNW4.8 kmh NNW 4.0 mph6.4 kmh 29.85 in1010.8 mb 0.00 in0.0 mm 0.00 in0.0 mm 0.00 in0.0 mm
08:50 AM 83.8°F28.8°C 45.2°F7.3°C 26% Calm Calm 3.0 mph4.8 kmh 29.85 in1010.8 mb 0.00 in0.0 mm 0.00 in0.0 mm 0.00 in0.0 mm
08:55 AM 84.3°F29.1°C 44.6°F7.0°C 25% Calm Calm 1.0 mph1.6 kmh 29.85 in1010.8 mb 0.00 in0.0 mm 0.00 in0.0 mm 0.00 in0.0 mm
09:00 AM 85.2°F29.6°C 45.3°F7.4°C 25% 1.0 mph E1.6 kmh E 5.0 mph8.0 kmh 29.85 in1010.8 mb 0.00 in0.0 mm 0.00 in0.0 mm 0.00 in0.0 mm
09:05 AM 85.7°F29.8°C 44.7°F7.1°C 24% 3.0 mph SW4.8 kmh SW 5.0 mph8.0 kmh 29.85 in1010.8 mb 0.00 in0.0 mm 0.00 in0.0 mm 0.00 in0.0 mm
09:10 AM 85.7°F29.8°C 44.7°F7.1°C 24% 4.0 mph SW6.4 kmh SW 6.0 mph9.7 kmh 29.85 in1010.8 mb 0.00 in0.0 mm 0.00 in0.0 mm 0.00 in0.0 mm
09:15 AM 85.5°F29.7°C 44.5°F6.9°C 24% Calm Calm 6.0 mph9.7 kmh 29.85 in1010.8 mb 0.00 in0.0 mm 0.00 in0.0 mm 0.00 in0.0 mm
09:20 AM 85.7°F29.8°C 44.7°F7.1°C 24% 1.0 mph SW1.6 kmh SW 4.0 mph6.4 kmh 29.85 in1010.8 mb 0.00 in0.0 mm 0.00 in0.0 mm 0.00 in0.0 mm
09:25 AM 86.3°F30.2°C 45.2°F7.3°C 24% Calm Calm 4.0 mph6.4 kmh 29.85 in1010.8 mb 0.00 in0.0 mm 0.00 in0.0 mm 0.00 in0.0 mm
09:30 AM 86.8°F30.4°C 44.5°F6.9°C 23% 5.0 mph S8.0 kmh S 10.0 mph16.1 kmh 29.85 in1010.8 mb 0.00 in0.0 mm 0.00 in0.0 mm 0.00 in0.0 mm
09:35 AM 87.3°F30.7°C 44.9°F7.2°C 23% 3.0 mph SSW4.8 kmh SSW 6.0 mph9.7 kmh 29.85 in1010.8 mb 0.00 in0.0 mm 0.00 in0.0 mm 0.00 in0.0 mm
09:40 AM 87.7°F30.9°C 44.1°F6.7°C 22% 2.0 mph S3.2 kmh S 4.0 mph6.4 kmh 29.85 in1010.8 mb 0.00 in0.0 mm 0.00 in0.0 mm 0.00 in0.0 mm
09:45 AM 87.9°F31.1°C 44.2°F6.8°C 22% 5.0 mph SW8.0 kmh SW 7.0 mph11.3 kmh 29.85 in1010.8 mb 0.00 in0.0 mm 0.00 in0.0 mm 0.00 in0.0 mm
09:50 AM 88.1°F31.2°C 44.4°F6.9°C 22% Calm Calm 5.0 mph8.0 kmh 29.85 in1010.8 mb 0.00 in0.0 mm 0.00 in0.0 mm 0.00 in0.0 mm
09:55 AM 88.4°F31.3°C 44.6°F7.0°C 22% 4.0 mph S6.4 kmh S 5.0 mph8.0 kmh 29.84 in1010.5 mb 0.00 in0.0 mm 0.00 in0.0 mm 0.00 in0.0 mm
10:00 AM 89.0°F31.7°C 43.9°F6.6°C 21% 4.0 mph W6.4 kmh W 6.0 mph9.7 kmh 29.85 in1010.8 mb 0.00 in0.0 mm 0.00 in0.0 mm 0.00 in0.0 mm
10:05 AM 88.8°F31.6°C 45.0°F7.2°C 22% 5.0 mph W8.0 kmh W 7.0 mph11.3 kmh 29.84 in1010.5 mb 0.00 in0.0 mm 0.00 in0.0 mm 0.00 in0.0 mm
10:10 AM 88.8°F31.6°C 43.7°F6.5°C 21% 6.0 mph W9.7 kmh W 7.0 mph11.3 kmh 29.84 in1010.5 mb 0.00 in0.0 mm 0.00 in0.0 mm 0.00 in0.0 mm
10:15 AM 88.4°F31.3°C 43.4°F6.3°C 21% 2.0 mph WSW3.2 kmh WSW 7.0 mph11.3 kmh 29.84 in1010.5 mb 0.00 in0.0 mm 0.00 in0.0 mm 0.00 in0.0 mm
10:20 AM 88.5°F31.4°C 44.7°F7.1°C 22% 1.0 mph S1.6 kmh S 8.0 mph12.9 kmh 29.84 in1010.5 mb 0.00 in0.0 mm 0.00 in0.0 mm 0.00 in0.0 mm
10:25 AM 89.2°F31.8°C 44.1°F6.7°C 21% 2.0 mph SW3.2 kmh SW 6.0 mph9.7 kmh 29.84 in1010.5 mb 0.00 in0.0 mm 0.00 in0.0 mm 0.00 in0.0 mm
10:30 AM 89.8°F32.1°C 44.6°F7.0°C 21% 4.0 mph 6.4 kmh 6.0 mph9.7 kmh 29.84 in1010.5 mb 0.00 in0.0 mm 0.00 in0.0 mm 0.00 in0.0 mm
10:35 AM 90.7°F32.6°C 44.0°F6.7°C 20% 3.0 mph SSE4.8 kmh SSE 7.0 mph11.3 kmh 29.84 in1010.5 mb 0.00 in0.0 mm 0.00 in0.0 mm 0.00 in0.0 mm
10:40 AM 91.4°F33.0°C 44.6°F7.0°C 20% 2.0 mph S3.2 kmh S 8.0 mph12.9 kmh 29.84 in1010.5 mb 0.00 in0.0 mm 0.00 in0.0 mm 0.00 in0.0 mm
10:45 AM 91.4°F33.0°C 43.3°F6.3°C 19% Calm Calm 3.0 mph4.8 kmh 29.84 in1010.5 mb 0.00 in0.0 mm 0.00 in0.0 mm 0.00 in0.0 mm
10:50 AM 91.2°F32.9°C 43.1°F6.2°C 19% 2.0 mph SE3.2 kmh SE 6.0 mph9.7 kmh 29.84 in1010.5 mb 0.00 in0.0 mm 0.00 in0.0 mm 0.00 in0.0 mm
10:55 AM 91.2°F32.9°C 43.1°F6.2°C 19% 1.0 mph SSW1.6 kmh SSW 6.0 mph9.7 kmh 29.84 in1010.5 mb 0.00 in0.0 mm 0.00 in0.0 mm 0.00 in0.0 mm
11:00 AM 91.5°F33.1°C 43.3°F6.3°C 19% 1.0 mph S1.6 kmh S 8.0 mph12.9 kmh 29.84 in1010.5 mb 0.00 in0.0 mm 0.00 in0.0 mm 0.00 in0.0 mm
11:05 AM 91.9°F33.3°C 43.7°F6.5°C 19% 1.0 mph SSW1.6 kmh SSW 8.0 mph12.9 kmh 29.84 in1010.5 mb 0.00 in0.0 mm 0.00 in0.0 mm 0.00 in0.0 mm
11:10 AM 91.6°F33.1°C 43.4°F6.3°C 19% 2.0 mph WSW3.2 kmh WSW 7.0 mph11.3 kmh 29.84 in1010.5 mb 0.00 in0.0 mm 0.00 in0.0 mm 0.00 in0.0 mm
11:15 AM 91.6°F33.1°C 43.4°F6.3°C 19% Calm Calm 10.0 mph16.1 kmh 29.83 in1010.2 mb 0.00 in0.0 mm 0.00 in0.0 mm 0.00 in0.0 mm
11:20 AM 91.5°F33.1°C 43.3°F6.3°C 19% 3.0 mph SE4.8 kmh SE 5.0 mph8.0 kmh 29.83 in1010.2 mb 0.00 in0.0 mm 0.00 in0.0 mm 0.00 in0.0 mm
11:25 AM 91.5°F33.1°C 43.3°F6.3°C 19% 5.0 mph SW8.0 kmh SW 11.0 mph17.7 kmh 29.83 in1010.2 mb 0.00 in0.0 mm 0.00 in0.0 mm 0.00 in0.0 mm
11:30 AM 91.5°F33.1°C 43.3°F6.3°C 19% 4.0 mph WSW6.4 kmh WSW 9.0 mph14.5 kmh 29.83 in1010.2 mb 0.00 in0.0 mm 0.00 in0.0 mm 0.00 in0.0 mm
11:35 AM 91.5°F33.1°C 43.3°F6.3°C 19% 3.0 mph SE4.8 kmh SE 8.0 mph12.9 kmh 29.83 in1010.2 mb 0.00 in0.0 mm 0.00 in0.0 mm 0.00 in0.0 mm
11:40 AM 91.5°F33.1°C 43.3°F6.3°C 19% 4.0 mph SSW6.4 kmh SSW 9.0 mph14.5 kmh 29.83 in1010.2 mb 0.00 in0.0 mm 0.00 in0.0 mm 0.00 in0.0 mm
11:45 AM 91.8°F33.2°C 43.6°F6.4°C 19% 4.0 mph SW6.4 kmh SW 7.0 mph11.3 kmh 29.83 in1010.2 mb 0.00 in0.0 mm 0.00 in0.0 mm 0.00 in0.0 mm
11:50 AM 92.4°F33.6°C 42.7°F5.9°C 18% 1.0 mph SE1.6 kmh SE 7.0 mph11.3 kmh 29.83 in1010.2 mb 0.00 in0.0 mm 0.00 in0.0 mm 0.00 in0.0 mm
11:55 AM 93.1°F33.9°C 43.2°F6.2°C 18% 4.0 mph SW6.4 kmh SW 11.0 mph17.7 kmh 29.83 in1010.2 mb 0.00 in0.0 mm 0.00 in0.0 mm 0.00 in0.0 mm
12:00 PM 93.4°F34.1°C 42.0°F5.6°C 17% 6.0 mph SW9.7 kmh SW 10.0 mph16.1 kmh 29.83 in1010.2 mb 0.00 in0.0 mm 0.00 in0.0 mm 0.00 in0.0 mm
12:05 PM 92.8°F33.8°C 41.5°F5.3°C 17% 2.0 mph SSW3.2 kmh SSW 15.0 mph24.1 kmh 29.83 in1010.2 mb 0.00 in0.0 mm 0.00 in0.0 mm 0.00 in0.0 mm
12:10 PM 93.0°F33.9°C 41.7°F5.4°C 17% 3.0 mph S4.8 kmh S 10.0 mph16.1 kmh 29.83 in1010.2 mb 0.00 in0.0 mm 0.00 in0.0 mm 0.00 in0.0 mm
12:15 PM 93.3°F34.1°C 36.9°F2.7°C 14% 5.0 mph E8.0 kmh E 9.0 mph14.5 kmh 29.82 in1009.8 mb 0.00 in0.0 mm 0.00 in0.0 mm 0.00 in0.0 mm
12:20 PM 93.4°F34.1°C 42.0°F5.6°C 17% 5.0 mph ESE8.0 kmh ESE 8.0 mph12.9 kmh 29.82 in1009.8 mb 0.00 in0.0 mm 0.00 in0.0 mm 0.00 in0.0 mm
12:25 PM 94.2°F34.6°C 42.6°F5.9°C 17% 5.0 mph SW8.0 kmh SW 12.0 mph19.3 kmh 29.83 in1010.2 mb 0.00 in0.0 mm 0.00 in0.0 mm 0.00 in0.0 mm
12:30 PM 94.5°F34.7°C 41.3°F5.2°C 16% 6.0 mph WSW9.7 kmh WSW 13.0 mph20.9 kmh 29.82 in1009.8 mb 0.00 in0.0 mm 0.00 in0.0 mm 0.00 in0.0 mm
12:35 PM 94.1°F34.5°C 39.3°F4.1°C 15% 9.0 mph SSE14.5 kmh SSE 9.0 mph14.5 kmh 29.82 in1009.8 mb 0.00 in0.0 mm 0.00 in0.0 mm 0.00 in0.0 mm
12:40 PM 94.7°F34.8°C 38.0°F3.3°C 14% 6.0 mph S9.7 kmh S 9.0 mph14.5 kmh 29.82 in1009.8 mb 0.00 in0.0 mm 0.00 in0.0 mm 0.00 in0.0 mm
12:45 PM 95.4°F35.2°C 36.7°F2.6°C 13% 2.0 mph S3.2 kmh S 6.0 mph9.7 kmh 29.82 in1009.8 mb 0.00 in0.0 mm 0.00 in0.0 mm 0.00 in0.0 mm
12:50 PM 95.5°F35.3°C 36.7°F2.6°C 13% 4.0 mph WSW6.4 kmh WSW 7.0 mph11.3 kmh 29.82 in1009.8 mb 0.00 in0.0 mm 0.00 in0.0 mm 0.00 in0.0 mm
12:55 PM 95.3°F35.2°C 36.6°F2.6°C 13% 7.0 mph 11.3 kmh 13.0 mph20.9 kmh 29.82 in1009.8 mb 0.00 in0.0 mm 0.00 in0.0 mm 0.00 in0.0 mm
01:00 PM 95.0°F35.0°C 38.2°F3.4°C 14% 6.0 mph SSW9.7 kmh SSW 15.0 mph24.1 kmh 29.81 in1009.5 mb 0.00 in0.0 mm 0.00 in0.0 mm 0.00 in0.0 mm
01:05 PM 95.3°F35.2°C 38.5°F3.6°C 14% 6.0 mph SSW9.7 kmh SSW 13.0 mph20.9 kmh 29.81 in1009.5 mb 0.00 in0.0 mm 0.00 in0.0 mm 0.00 in0.0 mm
01:10 PM 95.1°F35.1°C 38.3°F3.5°C 14% 3.0 mph SSW4.8 kmh SSW 10.0 mph16.1 kmh 29.81 in1009.5 mb 0.00 in0.0 mm 0.00 in0.0 mm 0.00 in0.0 mm
01:15 PM 95.2°F35.1°C 38.4°F3.6°C 14% 3.0 mph SSW4.8 kmh SSW 8.0 mph12.9 kmh 29.81 in1009.5 mb 0.00 in0.0 mm 0.00 in0.0 mm 0.00 in0.0 mm
01:20 PM 95.6°F35.3°C 40.5°F4.7°C 15% 7.0 mph SSW11.3 kmh SSW 14.0 mph22.5 kmh 29.81 in1009.5 mb 0.00 in0.0 mm 0.00 in0.0 mm 0.00 in0.0 mm
01:25 PM 95.8°F35.4°C 38.9°F3.8°C 14% 6.0 mph SW9.7 kmh SW 14.0 mph22.5 kmh 29.81 in1009.5 mb 0.00 in0.0 mm 0.00 in0.0 mm 0.00 in0.0 mm
01:30 PM 95.4°F35.2°C 38.6°F3.7°C 14% 5.0 mph WSW8.0 kmh WSW 14.0 mph22.5 kmh 29.81 in1009.5 mb 0.00 in0.0 mm 0.00 in0.0 mm 0.00 in0.0 mm
01:35 PM 95.4°F35.2°C 40.3°F4.6°C 15% 6.0 mph SW9.7 kmh SW 11.0 mph17.7 kmh 29.81 in1009.5 mb 0.00 in0.0 mm 0.00 in0.0 mm 0.00 in0.0 mm
01:40 PM 95.4°F35.2°C 40.3°F4.6°C 15% 7.0 mph SW11.3 kmh SW 16.0 mph25.7 kmh 29.80 in1009.1 mb 0.00 in0.0 mm 0.00 in0.0 mm 0.00 in0.0 mm
01:45 PM 95.8°F35.4°C 40.6°F4.8°C 15% 10.0 mph 16.1 kmh 16.0 mph25.7 kmh 29.80 in1009.1 mb 0.00 in0.0 mm 0.00 in0.0 mm 0.00 in0.0 mm
01:50 PM 95.7°F35.4°C 40.6°F4.8°C 15% 5.0 mph WSW8.0 kmh WSW 9.0 mph14.5 kmh 29.80 in1009.1 mb 0.00 in0.0 mm 0.00 in0.0 mm 0.00 in0.0 mm
01:55 PM 95.5°F35.3°C 40.4°F4.7°C 15% 8.0 mph SW12.9 kmh SW 10.0 mph16.1 kmh 29.80 in1009.1 mb 0.00 in0.0 mm 0.00 in0.0 mm 0.00 in0.0 mm
02:00 PM 95.4°F35.2°C 40.3°F4.6°C 15% 8.0 mph SSW12.9 kmh SSW 16.0 mph25.7 kmh 29.80 in1009.1 mb 0.00 in0.0 mm 0.00 in0.0 mm 0.00 in0.0 mm
02:05 PM 95.3°F35.2°C 40.2°F4.6°C 15% 4.0 mph SSW6.4 kmh SSW 14.0 mph22.5 kmh 29.80 in1009.1 mb 0.00 in0.0 mm 0.00 in0.0 mm 0.00 in0.0 mm
02:10 PM 95.4°F35.2°C 40.3°F4.6°C 15% 7.0 mph WSW11.3 kmh WSW 15.0 mph24.1 kmh 29.80 in1009.1 mb 0.00 in0.0 mm 0.00 in0.0 mm 0.00 in0.0 mm
02:15 PM 95.0°F35.0°C 40.0°F4.4°C 15% Calm Calm 14.0 mph22.5 kmh 29.79 in1008.8 mb 0.00 in0.0 mm 0.00 in0.0 mm 0.00 in0.0 mm
02:20 PM 94.8°F34.9°C 39.9°F4.4°C 15% 3.0 mph SW4.8 kmh SW 10.0 mph16.1 kmh 29.79 in1008.8 mb 0.00 in0.0 mm 0.00 in0.0 mm 0.00 in0.0 mm
02:25 PM 94.7°F34.8°C 39.8°F4.3°C 15% 5.0 mph WSW8.0 kmh WSW 8.0 mph12.9 kmh 29.79 in1008.8 mb 0.00 in0.0 mm 0.00 in0.0 mm 0.00 in0.0 mm
02:30 PM 94.7°F34.8°C 39.8°F4.3°C 15% 7.0 mph W11.3 kmh W 11.0 mph17.7 kmh 29.79 in1008.8 mb 0.00 in0.0 mm 0.00 in0.0 mm 0.00 in0.0 mm
02:35 PM 94.8°F34.9°C 39.9°F4.4°C 15% 10.0 mph S16.1 kmh S 14.0 mph22.5 kmh 29.79 in1008.8 mb 0.00 in0.0 mm 0.00 in0.0 mm 0.00 in0.0 mm
02:40 PM 95.1°F35.1°C 40.1°F4.5°C 15% 2.0 mph SW3.2 kmh SW 14.0 mph22.5 kmh 29.78 in1008.5 mb 0.00 in0.0 mm 0.00 in0.0 mm 0.00 in0.0 mm
02:45 PM 95.0°F35.0°C 40.0°F4.4°C 15% 7.0 mph 11.3 kmh 16.0 mph25.7 kmh 29.78 in1008.5 mb 0.00 in0.0 mm 0.00 in0.0 mm 0.00 in0.0 mm
02:50 PM 94.8°F34.9°C 39.9°F4.4°C 15% 6.0 mph WSW9.7 kmh WSW 11.0 mph17.7 kmh 29.78 in1008.5 mb 0.00 in0.0 mm 0.00 in0.0 mm 0.00 in0.0 mm
02:55 PM 94.9°F34.9°C 39.9°F4.4°C 15% 4.0 mph SW6.4 kmh SW 15.0 mph24.1 kmh 29.78 in1008.5 mb 0.00 in0.0 mm 0.00 in0.0 mm 0.00 in0.0 mm
03:00 PM 95.1°F35.1°C 41.8°F5.4°C 16% 5.0 mph 8.0 kmh 13.0 mph20.9 kmh 29.78 in1008.5 mb 0.00 in0.0 mm 0.00 in0.0 mm 0.00 in0.0 mm
03:05 PM 95.5°F35.3°C 42.1°F5.6°C 16% 7.0 mph SSW11.3 kmh SSW 16.0 mph25.7 kmh 29.78 in1008.5 mb 0.00 in0.0 mm 0.00 in0.0 mm 0.00 in0.0 mm
03:10 PM 95.4°F35.2°C 42.0°F5.6°C 16% 8.0 mph WSW12.9 kmh WSW 12.0 mph19.3 kmh 29.78 in1008.5 mb 0.00 in0.0 mm 0.00 in0.0 mm 0.00 in0.0 mm
03:15 PM 95.4°F35.2°C 42.0°F5.6°C 16% 3.0 mph SW4.8 kmh SW 10.0 mph16.1 kmh 29.77 in1008.1 mb 0.00 in0.0 mm 0.00 in0.0 mm 0.00 in0.0 mm
03:20 PM 95.7°F35.4°C 42.2°F5.7°C 16% 8.0 mph 12.9 kmh 15.0 mph24.1 kmh 29.77 in1008.1 mb 0.00 in0.0 mm 0.00 in0.0 mm 0.00 in0.0 mm
03:25 PM 95.5°F35.3°C 42.1°F5.6°C 16% 9.0 mph W14.5 kmh W 15.0 mph24.1 kmh 29.77 in1008.1 mb 0.00 in0.0 mm 0.00 in0.0 mm 0.00 in0.0 mm
03:30 PM 95.1°F35.1°C 41.8°F5.4°C 16% 6.0 mph W9.7 kmh W 14.0 mph22.5 kmh 29.77 in1008.1 mb 0.00 in0.0 mm 0.00 in0.0 mm 0.00 in0.0 mm
03:35 PM 94.9°F34.9°C 41.6°F5.3°C 16% 4.0 mph N6.4 kmh N 14.0 mph22.5 kmh 29.77 in1008.1 mb 0.00 in0.0 mm 0.00 in0.0 mm 0.00 in0.0 mm
03:40 PM 95.0°F35.0°C 41.7°F5.4°C 16% 1.0 mph NNW1.6 kmh NNW 6.0 mph9.7 kmh 29.76 in1007.8 mb 0.00 in0.0 mm 0.00 in0.0 mm 0.00 in0.0 mm
03:45 PM 95.0°F35.0°C 41.7°F5.4°C 16% 5.0 mph SW8.0 kmh SW 13.0 mph20.9 kmh 29.77 in1008.1 mb 0.00 in0.0 mm 0.00 in0.0 mm 0.00 in0.0 mm
03:50 PM 95.1°F35.1°C 43.3°F6.3°C 17% 7.0 mph SW11.3 kmh SW 14.0 mph22.5 kmh 29.76 in1007.8 mb 0.00 in0.0 mm 0.00 in0.0 mm 0.00 in0.0 mm
03:55 PM 95.1°F35.1°C 41.8°F5.4°C 16% 5.0 mph WSW8.0 kmh WSW 10.0 mph16.1 kmh 29.76 in1007.8 mb 0.00 in0.0 mm 0.00 in0.0 mm 0.00 in0.0 mm
04:00 PM 95.5°F35.3°C 42.1°F5.6°C 16% 9.0 mph 14.5 kmh 10.0 mph16.1 kmh 29.76 in1007.8 mb 0.00 in0.0 mm 0.00 in0.0 mm 0.00 in0.0 mm
04:05 PM 95.2°F35.1°C 41.8°F5.4°C 16% 2.0 mph W3.2 kmh W 11.0 mph17.7 kmh 29.76 in1007.8 mb 0.00 in0.0 mm 0.00 in0.0 mm 0.00 in0.0 mm
04:10 PM 95.0°F35.0°C 41.7°F5.4°C 16% 5.0 mph SSW8.0 kmh SSW 12.0 mph19.3 kmh 29.76 in1007.8 mb 0.00 in0.0 mm 0.00 in0.0 mm 0.00 in0.0 mm
04:15 PM 95.3°F35.2°C 41.9°F5.5°C 16% 6.0 mph SW9.7 kmh SW 12.0 mph19.3 kmh 29.76 in1007.8 mb 0.00 in0.0 mm 0.00 in0.0 mm 0.00 in0.0 mm
04:20 PM 95.4°F35.2°C 42.0°F5.6°C 16% 1.0 mph SSW1.6 kmh SSW 12.0 mph19.3 kmh 29.76 in1007.8 mb 0.00 in0.0 mm 0.00 in0.0 mm 0.00 in0.0 mm
04:25 PM 95.8°F35.4°C 42.3°F5.7°C 16% 1.0 mph SW1.6 kmh SW 4.0 mph6.4 kmh 29.76 in1007.8 mb 0.00 in0.0 mm 0.00 in0.0 mm 0.00 in0.0 mm
04:30 PM 95.8°F35.4°C 42.3°F5.7°C 16% 4.0 mph WSW6.4 kmh WSW 10.0 mph16.1 kmh 29.75 in1007.5 mb 0.00 in0.0 mm 0.00 in0.0 mm 0.00 in0.0 mm
04:35 PM 95.6°F35.3°C 42.2°F5.7°C 16% 10.0 mph WSW16.1 kmh WSW 12.0 mph19.3 kmh 29.75 in1007.5 mb 0.00 in0.0 mm 0.00 in0.0 mm 0.00 in0.0 mm
04:40 PM 95.0°F35.0°C 41.7°F5.4°C 16% 5.0 mph SW8.0 kmh SW 11.0 mph17.7 kmh 29.75 in1007.5 mb 0.00 in0.0 mm 0.00 in0.0 mm 0.00 in0.0 mm
04:45 PM 94.7°F34.8°C 41.4°F5.2°C 16% 8.0 mph W12.9 kmh W 11.0 mph17.7 kmh 29.75 in1007.5 mb 0.00 in0.0 mm 0.00 in0.0 mm 0.00 in0.0 mm
04:50 PM 94.5°F34.7°C 41.3°F5.2°C 16% 5.0 mph WSW8.0 kmh WSW 12.0 mph19.3 kmh 29.75 in1007.5 mb 0.00 in0.0 mm 0.00 in0.0 mm 0.00 in0.0 mm
04:55 PM 94.5°F34.7°C 41.3°F5.2°C 16% 7.0 mph 11.3 kmh 8.0 mph12.9 kmh 29.75 in1007.5 mb 0.00 in0.0 mm 0.00 in0.0 mm 0.00 in0.0 mm
05:00 PM 94.5°F34.7°C 41.3°F5.2°C 16% 3.0 mph SSW4.8 kmh SSW 8.0 mph12.9 kmh 29.75 in1007.5 mb 0.00 in0.0 mm 0.00 in0.0 mm 0.00 in0.0 mm
05:05 PM 94.5°F34.7°C 41.3°F5.2°C 16% 11.0 mph 17.7 kmh 13.0 mph20.9 kmh 29.74 in1007.1 mb 0.00 in0.0 mm 0.00 in0.0 mm 0.00 in0.0 mm
05:10 PM 94.5°F34.7°C 41.3°F5.2°C 16% 9.0 mph WSW14.5 kmh WSW 11.0 mph17.7 kmh 29.75 in1007.5 mb 0.00 in0.0 mm 0.00 in0.0 mm 0.00 in0.0 mm
05:15 PM 94.5°F34.7°C 41.3°F5.2°C 16% 1.0 mph SW1.6 kmh SW 10.0 mph16.1 kmh 29.74 in1007.1 mb 0.00 in0.0 mm 0.00 in0.0 mm 0.00 in0.0 mm
05:20 PM 94.6°F34.8°C 41.4°F5.2°C 16% 4.0 mph 6.4 kmh 6.0 mph9.7 kmh 29.74 in1007.1 mb 0.00 in0.0 mm 0.00 in0.0 mm 0.00 in0.0 mm
05:25 PM 94.5°F34.7°C 41.3°F5.2°C 16% 4.0 mph W6.4 kmh W 8.0 mph12.9 kmh 29.74 in1007.1 mb 0.00 in0.0 mm 0.00 in0.0 mm 0.00 in0.0 mm
05:30 PM 94.5°F34.7°C 41.3°F5.2°C 16% 6.0 mph W9.7 kmh W 8.0 mph12.9 kmh 29.74 in1007.1 mb 0.00 in0.0 mm 0.00 in0.0 mm 0.00 in0.0 mm
05:35 PM 94.2°F34.6°C 42.6°F5.9°C 17% 12.0 mph WSW19.3 kmh WSW 12.0 mph19.3 kmh 29.74 in1007.1 mb 0.00 in0.0 mm 0.00 in0.0 mm 0.00 in0.0 mm
05:40 PM 93.8°F34.3°C 42.3°F5.7°C 17% 4.0 mph NW6.4 kmh NW 10.0 mph16.1 kmh 29.74 in1007.1 mb 0.00 in0.0 mm 0.00 in0.0 mm 0.00 in0.0 mm
05:45 PM 93.7°F34.3°C 40.6°F4.8°C 16% 7.0 mph W11.3 kmh W 10.0 mph16.1 kmh 29.74 in1007.1 mb 0.00 in0.0 mm 0.00 in0.0 mm 0.00 in0.0 mm
05:50 PM 93.7°F34.3°C 42.2°F5.7°C 17% 5.0 mph W8.0 kmh W 8.0 mph12.9 kmh 29.74 in1007.1 mb 0.00 in0.0 mm 0.00 in0.0 mm 0.00 in0.0 mm
05:55 PM 93.6°F34.2°C 42.1°F5.6°C 17% 4.0 mph WSW6.4 kmh WSW 9.0 mph14.5 kmh 29.74 in1007.1 mb 0.00 in0.0 mm 0.00 in0.0 mm 0.00 in0.0 mm
06:00 PM 93.4°F34.1°C 42.0°F5.6°C 17% 2.0 mph W3.2 kmh W 8.0 mph12.9 kmh 29.74 in1007.1 mb 0.00 in0.0 mm 0.00 in0.0 mm 0.00 in0.0 mm
06:05 PM 93.3°F34.1°C 41.9°F5.5°C 17% 2.0 mph NW3.2 kmh NW 4.0 mph6.4 kmh 29.74 in1007.1 mb 0.00 in0.0 mm 0.00 in0.0 mm 0.00 in0.0 mm
06:10 PM 93.2°F34.0°C 41.8°F5.4°C 17% 2.0 mph W3.2 kmh W 6.0 mph9.7 kmh 29.74 in1007.1 mb 0.00 in0.0 mm 0.00 in0.0 mm 0.00 in0.0 mm
06:15 PM 93.3°F34.1°C 41.9°F5.5°C 17% Calm Calm 2.0 mph3.2 kmh 29.74 in1007.1 mb 0.00 in0.0 mm 0.00 in0.0 mm 0.00 in0.0 mm
06:20 PM 93.5°F34.2°C 42.1°F5.6°C 17% 4.0 mph WSW6.4 kmh WSW 4.0 mph6.4 kmh 29.73 in1006.8 mb 0.00 in0.0 mm 0.00 in0.0 mm 0.00 in0.0 mm
06:25 PM 93.3°F34.1°C 41.9°F5.5°C 17% 6.0 mph WSW9.7 kmh WSW 8.0 mph12.9 kmh 29.74 in1007.1 mb 0.00 in0.0 mm 0.00 in0.0 mm 0.00 in0.0 mm
06:30 PM 93.1°F33.9°C 41.7°F5.4°C 17% 2.0 mph WSW3.2 kmh WSW 7.0 mph11.3 kmh 29.73 in1006.8 mb 0.00 in0.0 mm 0.00 in0.0 mm 0.00 in0.0 mm
06:35 PM 93.1°F33.9°C 41.7°F5.4°C 17% 2.0 mph WNW3.2 kmh WNW 8.0 mph12.9 kmh 29.73 in1006.8 mb 0.00 in0.0 mm 0.00 in0.0 mm 0.00 in0.0 mm
06:40 PM 93.1°F33.9°C 41.7°F5.4°C 17% 1.0 mph W1.6 kmh W 4.0 mph6.4 kmh 29.73 in1006.8 mb 0.00 in0.0 mm 0.00 in0.0 mm 0.00 in0.0 mm
06:45 PM 93.1°F33.9°C 41.7°F5.4°C 17% 3.0 mph W4.8 kmh W 5.0 mph8.0 kmh 29.74 in1007.1 mb 0.00 in0.0 mm 0.00 in0.0 mm 0.00 in0.0 mm
06:50 PM 92.4°F33.6°C 41.2°F5.1°C 17% 4.0 mph NW6.4 kmh NW 6.0 mph9.7 kmh 29.74 in1007.1 mb 0.00 in0.0 mm 0.00 in0.0 mm 0.00 in0.0 mm
06:55 PM 92.0°F33.3°C 42.3°F5.7°C 18% 4.0 mph NW6.4 kmh NW 8.0 mph12.9 kmh 29.74 in1007.1 mb 0.00 in0.0 mm 0.00 in0.0 mm 0.00 in0.0 mm
07:00 PM 91.6°F33.1°C 42.0°F5.6°C 18% 2.0 mph NW3.2 kmh NW 7.0 mph11.3 kmh 29.74 in1007.1 mb 0.00 in0.0 mm 0.00 in0.0 mm 0.00 in0.0 mm
07:05 PM 91.2°F32.9°C 41.7°F5.4°C 18% 3.0 mph NW4.8 kmh NW 5.0 mph8.0 kmh 29.74 in1007.1 mb 0.00 in0.0 mm 0.00 in0.0 mm 0.00 in0.0 mm
07:10 PM 91.0°F32.8°C 41.5°F5.3°C 18% 1.0 mph NW1.6 kmh NW 4.0 mph6.4 kmh 29.74 in1007.1 mb 0.00 in0.0 mm 0.00 in0.0 mm 0.00 in0.0 mm
07:15 PM 90.8°F32.7°C 41.4°F5.2°C 18% 1.0 mph NW1.6 kmh NW 3.0 mph4.8 kmh 29.73 in1006.8 mb 0.00 in0.0 mm 0.00 in0.0 mm 0.00 in0.0 mm
07:20 PM 90.5°F32.5°C 41.1°F5.1°C 18% 3.0 mph NW4.8 kmh NW 3.0 mph4.8 kmh 29.73 in1006.8 mb 0.00 in0.0 mm 0.00 in0.0 mm 0.00 in0.0 mm
07:25 PM 90.2°F32.3°C 42.3°F5.7°C 19% 2.0 mph WNW3.2 kmh WNW 5.0 mph8.0 kmh 29.73 in1006.8 mb 0.00 in0.0 mm 0.00 in0.0 mm 0.00 in0.0 mm
07:30 PM 89.8°F32.1°C 42.0°F5.6°C 19% 2.0 mph WNW3.2 kmh WNW 3.0 mph4.8 kmh 29.73 in1006.8 mb 0.00 in0.0 mm 0.00 in0.0 mm 0.00 in0.0 mm
07:35 PM 89.5°F31.9°C 41.7°F5.4°C 19% 2.0 mph WNW3.2 kmh WNW 3.0 mph4.8 kmh 29.73 in1006.8 mb 0.00 in0.0 mm 0.00 in0.0 mm 0.00 in0.0 mm
07:40 PM 89.2°F31.8°C 41.5°F5.3°C 19% 1.0 mph WNW1.6 kmh WNW 3.0 mph4.8 kmh 29.74 in1007.1 mb 0.00 in0.0 mm 0.00 in0.0 mm 0.00 in0.0 mm
07:45 PM 88.9°F31.6°C 42.6°F5.9°C 20% Calm Calm 2.0 mph3.2 kmh 29.73 in1006.8 mb 0.00 in0.0 mm 0.00 in0.0 mm 0.00 in0.0 mm
07:50 PM 88.6°F31.4°C 42.3°F5.7°C 20% Calm Calm 1.0 mph1.6 kmh 29.74 in1007.1 mb 0.00 in0.0 mm 0.00 in0.0 mm 0.00 in0.0 mm
07:55 PM 88.3°F31.3°C 42.1°F5.6°C 20% 1.0 mph WNW1.6 kmh WNW 2.0 mph3.2 kmh 29.74 in1007.1 mb 0.00 in0.0 mm 0.00 in0.0 mm 0.00 in0.0 mm
08:00 PM 87.9°F31.1°C 43.0°F6.1°C 21% 1.0 mph WNW1.6 kmh WNW 2.0 mph3.2 kmh 29.74 in1007.1 mb 0.00 in0.0 mm 0.00 in0.0 mm 0.00 in0.0 mm
08:05 PM 87.5°F30.8°C 42.7°F5.9°C 21% Calm Calm 1.0 mph1.6 kmh 29.74 in1007.1 mb 0.00 in0.0 mm 0.00 in0.0 mm 0.00 in0.0 mm
08:10 PM 87.1°F30.6°C 42.3°F5.7°C 21% Calm Calm 1.0 mph1.6 kmh 29.74 in1007.1 mb 0.00 in0.0 mm 0.00 in0.0 mm 0.00 in0.0 mm
08:15 PM 86.7°F30.4°C 42.0°F5.6°C 21% 1.0 mph WNW1.6 kmh WNW 1.0 mph1.6 kmh 29.74 in1007.1 mb 0.00 in0.0 mm 0.00 in0.0 mm 0.00 in0.0 mm
08:20 PM 86.2°F30.1°C 41.6°F5.3°C 21% Calm Calm 3.0 mph4.8 kmh 29.74 in1007.1 mb 0.00 in0.0 mm 0.00 in0.0 mm 0.00 in0.0 mm
08:25 PM 85.7°F29.8°C 42.4°F5.8°C 22% 2.0 mph N3.2 kmh N 4.0 mph6.4 kmh 29.74 in1007.1 mb 0.00 in0.0 mm 0.00 in0.0 mm 0.00 in0.0 mm
08:30 PM 85.2°F29.6°C 42.0°F5.6°C 22% 1.0 mph N1.6 kmh N 4.0 mph6.4 kmh 29.75 in1007.5 mb 0.00 in0.0 mm 0.00 in0.0 mm 0.00 in0.0 mm
08:35 PM 84.8°F29.3°C 41.7°F5.4°C 22% Calm Calm 2.0 mph3.2 kmh 29.75 in1007.5 mb 0.00 in0.0 mm 0.00 in0.0 mm 0.00 in0.0 mm
08:40 PM 84.5°F29.2°C 41.4°F5.2°C 22% Calm Calm 2.0 mph3.2 kmh 29.75 in1007.5 mb 0.00 in0.0 mm 0.00 in0.0 mm 0.00 in0.0 mm
08:45 PM 84.2°F29.0°C 42.3°F5.7°C 23% 1.0 mph N1.6 kmh N 3.0 mph4.8 kmh 29.75 in1007.5 mb 0.00 in0.0 mm 0.00 in0.0 mm 0.00 in0.0 mm
08:50 PM 83.9°F28.8°C 42.1°F5.6°C 23% Calm Calm 2.0 mph3.2 kmh 29.75 in1007.5 mb 0.00 in0.0 mm 0.00 in0.0 mm 0.00 in0.0 mm
08:55 PM 83.6°F28.7°C 41.8°F5.4°C 23% Calm Calm 2.0 mph3.2 kmh 29.75 in1007.5 mb 0.00 in0.0 mm 0.00 in0.0 mm 0.00 in0.0 mm
09:00 PM 83.3°F28.5°C 42.7°F5.9°C 24% Calm Calm -- 29.76 in1007.8 mb 0.00 in0.0 mm 0.00 in0.0 mm 0.00 in0.0 mm
09:05 PM 82.9°F28.3°C 42.3°F5.7°C 24% Calm Calm 1.0 mph1.6 kmh 29.76 in1007.8 mb 0.00 in0.0 mm 0.00 in0.0 mm 0.00 in0.0 mm
09:10 PM 82.6°F28.1°C 42.1°F5.6°C 24% Calm Calm 2.0 mph3.2 kmh 29.76 in1007.8 mb 0.00 in0.0 mm 0.00 in0.0 mm 0.00 in0.0 mm
09:15 PM 82.2°F27.9°C 41.7°F5.4°C 24% 1.0 mph N1.6 kmh N 2.0 mph3.2 kmh 29.76 in1007.8 mb 0.00 in0.0 mm 0.00 in0.0 mm 0.00 in0.0 mm
09:20 PM 81.9°F27.7°C 41.5°F5.3°C 24% 1.0 mph N1.6 kmh N 2.0 mph3.2 kmh 29.77 in1008.1 mb 0.00 in0.0 mm 0.00 in0.0 mm 0.00 in0.0 mm
09:25 PM 81.5°F27.5°C 42.2°F5.7°C 25% 2.0 mph N3.2 kmh N 4.0 mph6.4 kmh 29.77 in1008.1 mb 0.00 in0.0 mm 0.00 in0.0 mm 0.00 in0.0 mm
09:30 PM 80.9°F27.2°C 41.7°F5.4°C 25% 1.0 mph NNW1.6 kmh NNW 3.0 mph4.8 kmh 29.77 in1008.1 mb 0.00 in0.0 mm 0.00 in0.0 mm 0.00 in0.0 mm
09:35 PM 80.8°F27.1°C 42.6°F5.9°C 26% 2.0 mph W3.2 kmh W 6.0 mph9.7 kmh 29.77 in1008.1 mb 0.00 in0.0 mm 0.00 in0.0 mm 0.00 in0.0 mm
09:40 PM 81.0°F27.2°C 43.8°F6.6°C 27% 2.0 mph WNW3.2 kmh WNW 8.0 mph12.9 kmh 29.78 in1008.5 mb 0.00 in0.0 mm 0.00 in0.0 mm 0.00 in0.0 mm
09:45 PM 81.3°F27.4°C 44.0°F6.7°C 27% 3.0 mph WNW4.8 kmh WNW 8.0 mph12.9 kmh 29.78 in1008.5 mb 0.00 in0.0 mm 0.00 in0.0 mm 0.00 in0.0 mm
09:50 PM 81.8°F27.7°C 44.5°F6.9°C 27% 2.0 mph WNW3.2 kmh WNW 9.0 mph14.5 kmh 29.78 in1008.5 mb 0.00 in0.0 mm 0.00 in0.0 mm 0.00 in0.0 mm
09:55 PM 82.1°F27.8°C 44.7°F7.1°C 27% 3.0 mph NW4.8 kmh NW 5.0 mph8.0 kmh 29.78 in1008.5 mb 0.00 in0.0 mm 0.00 in0.0 mm 0.00 in0.0 mm
10:00 PM 82.2°F27.9°C 43.8°F6.6°C 26% 1.0 mph NW1.6 kmh NW 5.0 mph8.0 kmh 29.78 in1008.5 mb 0.00 in0.0 mm 0.00 in0.0 mm 0.00 in0.0 mm
10:05 PM 82.2°F27.9°C 43.8°F6.6°C 26% Calm Calm 5.0 mph8.0 kmh 29.79 in1008.8 mb 0.00 in0.0 mm 0.00 in0.0 mm 0.00 in0.0 mm
10:10 PM 82.2°F27.9°C 43.8°F6.6°C 26% 1.0 mph NW1.6 kmh NW 4.0 mph6.4 kmh 29.79 in1008.8 mb 0.00 in0.0 mm 0.00 in0.0 mm 0.00 in0.0 mm
10:15 PM 82.1°F27.8°C 43.7°F6.5°C 26% Calm Calm 3.0 mph4.8 kmh 29.79 in1008.8 mb 0.00 in0.0 mm 0.00 in0.0 mm 0.00 in0.0 mm
10:20 PM 82.0°F27.8°C 43.7°F6.5°C 26% 1.0 mph NW1.6 kmh NW 2.0 mph3.2 kmh 29.79 in1008.8 mb 0.00 in0.0 mm 0.00 in0.0 mm 0.00 in0.0 mm
10:25 PM 81.7°F27.6°C 43.4°F6.3°C 26% 1.0 mph N1.6 kmh N 3.0 mph4.8 kmh 29.79 in1008.8 mb 0.00 in0.0 mm 0.00 in0.0 mm 0.00 in0.0 mm
10:30 PM 81.6°F27.6°C 43.3°F6.3°C 26% 1.0 mph N1.6 kmh N 2.0 mph3.2 kmh 29.79 in1008.8 mb 0.00 in0.0 mm 0.00 in0.0 mm 0.00 in0.0 mm
10:35 PM 81.1°F27.3°C 41.9°F5.5°C 25% 2.0 mph N3.2 kmh N 4.0 mph6.4 kmh 29.79 in1008.8 mb 0.00 in0.0 mm 0.00 in0.0 mm 0.00 in0.0 mm
10:40 PM 80.8°F27.1°C 41.6°F5.3°C 25% 2.0 mph N3.2 kmh N 4.0 mph6.4 kmh 29.79 in1008.8 mb 0.00 in0.0 mm 0.00 in0.0 mm 0.00 in0.0 mm
10:45 PM 80.6°F27.0°C 41.5°F5.3°C 25% 2.0 mph N3.2 kmh N 4.0 mph6.4 kmh 29.79 in1008.8 mb 0.00 in0.0 mm 0.00 in0.0 mm 0.00 in0.0 mm
10:50 PM 80.3°F26.8°C 41.2°F5.1°C 25% 2.0 mph N3.2 kmh N 3.0 mph4.8 kmh 29.79 in1008.8 mb 0.00 in0.0 mm 0.00 in0.0 mm 0.00 in0.0 mm
10:55 PM 80.1°F26.7°C 41.0°F5.0°C 25% 1.0 mph N1.6 kmh N 3.0 mph4.8 kmh 29.79 in1008.8 mb 0.00 in0.0 mm 0.00 in0.0 mm 0.00 in0.0 mm
11:00 PM 79.8°F26.6°C 39.7°F4.3°C 24% 3.0 mph 4.8 kmh 5.0 mph8.0 kmh 29.79 in1008.8 mb 0.00 in0.0 mm 0.00 in0.0 mm 0.00 in0.0 mm
11:05 PM 79.6°F26.4°C 39.6°F4.2°C 24% 2.0 mph 3.2 kmh 3.0 mph4.8 kmh 29.79 in1008.8 mb 0.00 in0.0 mm 0.00 in0.0 mm 0.00 in0.0 mm
11:10 PM 79.5°F26.4°C 38.4°F3.6°C 23% 3.0 mph NNW4.8 kmh NNW 5.0 mph8.0 kmh 29.80 in1009.1 mb 0.00 in0.0 mm 0.00 in0.0 mm 0.00 in0.0 mm
11:15 PM 79.4°F26.3°C 38.3°F3.5°C 23% 2.0 mph NNW3.2 kmh NNW 4.0 mph6.4 kmh 29.80 in1009.1 mb 0.00 in0.0 mm 0.00 in0.0 mm 0.00 in0.0 mm
11:20 PM 79.3°F26.3°C 38.2°F3.4°C 23% 1.0 mph NNW1.6 kmh NNW 3.0 mph4.8 kmh 29.80 in1009.1 mb 0.00 in0.0 mm 0.00 in0.0 mm 0.00 in0.0 mm
11:25 PM 79.2°F26.2°C 37.0°F2.8°C 22% 5.0 mph NW8.0 kmh NW 5.0 mph8.0 kmh 29.80 in1009.1 mb 0.00 in0.0 mm 0.00 in0.0 mm 0.00 in0.0 mm
11:30 PM 79.2°F26.2°C 35.8°F2.1°C 21% 3.0 mph NW4.8 kmh NW 7.0 mph11.3 kmh 29.80 in1009.1 mb 0.00 in0.0 mm 0.00 in0.0 mm 0.00 in0.0 mm
11:35 PM 79.3°F26.3°C 35.9°F2.2°C 21% 2.0 mph WNW3.2 kmh WNW 5.0 mph8.0 kmh 29.80 in1009.1 mb 0.00 in0.0 mm 0.00 in0.0 mm 0.00 in0.0 mm
11:40 PM 79.4°F26.3°C 36.0°F2.2°C 21% Calm Calm 4.0 mph6.4 kmh 29.80 in1009.1 mb 0.00 in0.0 mm 0.00 in0.0 mm 0.00 in0.0 mm
11:45 PM 79.4°F26.3°C 37.2°F2.9°C 22% 1.0 mph NW1.6 kmh NW 1.0 mph1.6 kmh 29.80 in1009.1 mb 0.00 in0.0 mm 0.00 in0.0 mm 0.00 in0.0 mm
11:50 PM 79.3°F26.3°C 35.9°F2.2°C 21% 3.0 mph NW4.8 kmh NW 5.0 mph8.0 kmh 29.80 in1009.1 mb 0.00 in0.0 mm 0.00 in0.0 mm 0.00 in0.0 mm
11:55 PM 79.1°F26.2°C 35.7°F2.1°C 21% 1.0 mph NW1.6 kmh NW 4.0 mph6.4 kmh 29.80 in1009.1 mb 0.00 in0.0 mm 0.00 in0.0 mm 0.00 in0.0 mm